sensor_id;sensor_type;location;lat;lon;timestamp;P1;P2;P0
76049;PMS7003;64967;50.234;19.224;2023-05-16T00:00:38;1.00;1.00;1.00
76049;PMS7003;64967;50.234;19.224;2023-05-16T00:03:06;1.00;1.00;1.00
76049;PMS7003;64967;50.234;19.224;2023-05-16T00:05:37;0.50;0.50;0.00
76049;PMS7003;64967;50.234;19.224;2023-05-16T00:08:30;1.75;1.75;1.00
76049;PMS7003;64967;50.234;19.224;2023-05-16T00:11:15;1.50;1.25;1.00
76049;PMS7003;64967;50.234;19.224;2023-05-16T00:13:56;2.50;2.50;2.25
76049;PMS7003;64967;50.234;19.224;2023-05-16T00:16:29;1.00;1.00;1.00
76049;PMS7003;64967;50.234;19.224;2023-05-16T00:18:57;2.50;2.25;1.75
76049;PMS7003;64967;50.234;19.224;2023-05-16T00:21:26;3.00;3.00;2.50
76049;PMS7003;64967;50.234;19.224;2023-05-16T00:23:53;3.75;3.75;2.00
76049;PMS7003;64967;50.234;19.224;2023-05-16T00:26:20;1.00;0.50;0.25
76049;PMS7003;64967;50.234;19.224;2023-05-16T00:28:47;2.00;1.25;1.00
76049;PMS7003;64967;50.234;19.224;2023-05-16T00:31:14;2.25;2.00;1.00
76049;PMS7003;64967;50.234;19.224;2023-05-16T00:33:41;2.25;2.00;1.00
76049;PMS7003;64967;50.234;19.224;2023-05-16T00:36:08;2.25;2.00;2.00
76049;PMS7003;64967;50.234;19.224;2023-05-16T00:38:36;2.00;2.00;2.00
76049;PMS7003;64967;50.234;19.224;2023-05-16T00:41:03;2.00;2.00;2.00
76049;PMS7003;64967;50.234;19.224;2023-05-16T00:43:30;2.00;2.00;2.00
76049;PMS7003;64967;50.234;19.224;2023-05-16T00:45:57;3.00;2.00;2.00
76049;PMS7003;64967;50.234;19.224;2023-05-16T00:48:26;1.00;1.00;1.00
76049;PMS7003;64967;50.234;19.224;2023-05-16T00:50:53;1.75;1.75;1.00
76049;PMS7003;64967;50.234;19.224;2023-05-16T00:53:20;1.00;1.00;1.00
76049;PMS7003;64967;50.234;19.224;2023-05-16T00:55:47;1.00;1.00;1.00
76049;PMS7003;64967;50.234;19.224;2023-05-16T00:58:14;2.00;2.00;1.00
76049;PMS7003;64967;50.234;19.224;2023-05-16T01:00:41;1.00;0.50;0.50
76049;PMS7003;64967;50.234;19.224;2023-05-16T01:03:13;1.75;1.75;1.00
76049;PMS7003;64967;50.234;19.224;2023-05-16T01:05:48;1.00;1.00;1.00
76049;PMS7003;64967;50.234;19.224;2023-05-16T01:08:31;0.00;0.00;0.00
76049;PMS7003;64967;50.234;19.224;2023-05-16T01:11:26;1.00;1.00;1.00
76049;PMS7003;64967;50.234;19.224;2023-05-16T01:23:04;1.50;1.00;1.00
76049;PMS7003;64967;50.234;19.224;2023-05-16T01:28:43;2.50;1.75;1.00
76049;PMS7003;64967;50.234;19.224;2023-05-16T01:31:12;1.00;1.00;1.00
76049;PMS7003;64967;50.234;19.224;2023-05-16T01:33:39;3.00;2.00;1.75
76049;PMS7003;64967;50.234;19.224;2023-05-16T01:46:51;0.50;0.50;0.50
76049;PMS7003;64967;50.234;19.224;2023-05-16T01:52:15;1.00;1.00;0.75
76049;PMS7003;64967;50.234;19.224;2023-05-16T01:54:48;1.00;1.00;1.00
76049;PMS7003;64967;50.234;19.224;2023-05-16T01:57:20;1.00;1.00;1.00
76049;PMS7003;64967;50.234;19.224;2023-05-16T01:59:51;1.00;1.00;1.00
76049;PMS7003;64967;50.234;19.224;2023-05-16T02:02:19;2.00;2.00;1.25
76049;PMS7003;64967;50.234;19.224;2023-05-16T02:04:46;2.50;2.00;2.00
76049;PMS7003;64967;50.234;19.224;2023-05-16T02:07:13;1.00;1.00;1.00
76049;PMS7003;64967;50.234;19.224;2023-05-16T02:09:40;2.00;2.00;1.50
76049;PMS7003;64967;50.234;19.224;2023-05-16T02:12:07;2.75;2.00;2.00
76049;PMS7003;64967;50.234;19.224;2023-05-16T02:14:34;2.00;1.25;1.25
76049;PMS7003;64967;50.234;19.224;2023-05-16T02:17:01;1.00;1.00;1.00
76049;PMS7003;64967;50.234;19.224;2023-05-16T02:19:28;1.00;1.00;1.00
76049;PMS7003;64967;50.234;19.224;2023-05-16T02:21:55;2.25;1.50;1.50
76049;PMS7003;64967;50.234;19.224;2023-05-16T02:24:22;1.00;1.00;1.00
76049;PMS7003;64967;50.234;19.224;2023-05-16T02:26:49;2.00;2.00;2.00
76049;PMS7003;64967;50.234;19.224;2023-05-16T02:29:17;1.25;1.00;1.00
76049;PMS7003;64967;50.234;19.224;2023-05-16T02:31:44;1.00;1.00;1.00
76049;PMS7003;64967;50.234;19.224;2023-05-16T02:34:11;0.50;0.50;0.50
76049;PMS7003;64967;50.234;19.224;2023-05-16T02:36:38;1.00;1.00;1.00
76049;PMS7003;64967;50.234;19.224;2023-05-16T02:39:05;0.50;0.50;0.50
76049;PMS7003;64967;50.234;19.224;2023-05-16T02:41:34;0.00;0.00;0.00
76049;PMS7003;64967;50.234;19.224;2023-05-16T02:44:01;0.25;0.25;0.25
76049;PMS7003;64967;50.234;19.224;2023-05-16T02:46:29;1.75;1.75;1.00
76049;PMS7003;64967;50.234;19.224;2023-05-16T02:49:00;0.25;0.25;0.00
76049;PMS7003;64967;50.234;19.224;2023-05-16T02:51:29;1.00;0.00;0.00
76049;PMS7003;64967;50.234;19.224;2023-05-16T02:53:56;1.00;1.00;1.00
76049;PMS7003;64967;50.234;19.224;2023-05-16T02:56:25;1.00;1.00;1.00
76049;PMS7003;64967;50.234;19.224;2023-05-16T02:58:53;1.00;1.00;1.00
76049;PMS7003;64967;50.234;19.224;2023-05-16T03:01:21;1.25;1.00;1.00
76049;PMS7003;64967;50.234;19.224;2023-05-16T03:03:48;1.75;1.00;1.00
76049;PMS7003;64967;50.234;19.224;2023-05-16T03:06:15;1.00;1.00;1.00
76049;PMS7003;64967;50.234;19.224;2023-05-16T03:08:42;1.00;1.00;1.00
76049;PMS7003;64967;50.234;19.224;2023-05-16T03:11:09;1.00;0.00;0.00
76049;PMS7003;64967;50.234;19.224;2023-05-16T03:13:36;0.50;0.50;0.25
76049;PMS7003;64967;50.234;19.224;2023-05-16T03:16:04;0.75;0.00;0.00
76049;PMS7003;64967;50.234;19.224;2023-05-16T03:18:32;1.50;1.50;1.00
76049;PMS7003;64967;50.234;19.224;2023-05-16T03:20:59;2.50;1.00;1.00
76049;PMS7003;64967;50.234;19.224;2023-05-16T03:23:27;2.75;2.75;2.25
76049;PMS7003;64967;50.234;19.224;2023-05-16T03:25:54;2.25;1.75;1.00
76049;PMS7003;64967;50.234;19.224;2023-05-16T03:28:21;3.50;3.50;3.00
76049;PMS7003;64967;50.234;19.224;2023-05-16T03:30:48;8.75;5.50;4.25
76049;PMS7003;64967;50.234;19.224;2023-05-16T03:33:15;4.25;4.25;3.25
76049;PMS7003;64967;50.234;19.224;2023-05-16T03:35:42;4.00;4.00;4.00
76049;PMS7003;64967;50.234;19.224;2023-05-16T03:38:09;5.00;4.75;3.50
76049;PMS7003;64967;50.234;19.224;2023-05-16T03:40:36;3.75;3.00;2.75
76049;PMS7003;64967;50.234;19.224;2023-05-16T03:43:03;4.25;3.50;3.00
76049;PMS7003;64967;50.234;19.224;2023-05-16T03:45:30;4.50;4.00;3.00
76049;PMS7003;64967;50.234;19.224;2023-05-16T03:47:57;4.00;3.00;3.00
76049;PMS7003;64967;50.234;19.224;2023-05-16T03:50:24;2.75;2.75;2.00
76049;PMS7003;64967;50.234;19.224;2023-05-16T03:52:51;7.50;5.00;3.75
76049;PMS7003;64967;50.234;19.224;2023-05-16T03:55:20;4.25;3.50;3.25
76049;PMS7003;64967;50.234;19.224;2023-05-16T03:57:47;5.00;4.00;3.50
76049;PMS7003;64967;50.234;19.224;2023-05-16T04:00:15;2.75;1.00;1.00
76049;PMS7003;64967;50.234;19.224;2023-05-16T04:02:42;4.00;4.00;4.00
76049;PMS7003;64967;50.234;19.224;2023-05-16T04:05:10;6.50;6.00;5.75
76049;PMS7003;64967;50.234;19.224;2023-05-16T04:07:38;6.00;5.50;4.50
76049;PMS7003;64967;50.234;19.224;2023-05-16T04:10:06;6.00;6.00;5.25
76049;PMS7003;64967;50.234;19.224;2023-05-16T04:12:34;6.75;5.50;4.75
76049;PMS7003;64967;50.234;19.224;2023-05-16T04:15:02;6.25;5.25;5.00
76049;PMS7003;64967;50.234;19.224;2023-05-16T04:17:30;4.00;4.00;4.00
76049;PMS7003;64967;50.234;19.224;2023-05-16T04:19:57;5.50;4.50;4.00
76049;PMS7003;64967;50.234;19.224;2023-05-16T04:22:24;4.50;4.00;2.75
76049;PMS7003;64967;50.234;19.224;2023-05-16T04:24:51;4.00;4.00;3.75
76049;PMS7003;64967;50.234;19.224;2023-05-16T04:27:18;3.00;3.00;2.00
76049;PMS7003;64967;50.234;19.224;2023-05-16T04:29:45;2.00;2.00;1.50
76049;PMS7003;64967;50.234;19.224;2023-05-16T04:32:12;4.25;4.25;4.00
76049;PMS7003;64967;50.234;19.224;2023-05-16T04:34:39;4.00;3.00;2.75
76049;PMS7003;64967;50.234;19.224;2023-05-16T04:37:06;4.00;4.00;3.50
76049;PMS7003;64967;50.234;19.224;2023-05-16T04:39:35;8.00;5.75;5.00
76049;PMS7003;64967;50.234;19.224;2023-05-16T04:42:03;9.50;6.00;5.00
76049;PMS7003;64967;50.234;19.224;2023-05-16T04:44:30;7.00;6.25;5.00
76049;PMS7003;64967;50.234;19.224;2023-05-16T04:46:57;13.00;12.75;9.25
76049;PMS7003;64967;50.234;19.224;2023-05-16T04:49:25;15.75;12.25;9.75
76049;PMS7003;64967;50.234;19.224;2023-05-16T04:51:51;13.00;11.75;9.00
76049;PMS7003;64967;50.234;19.224;2023-05-16T04:54:18;14.00;12.50;10.00
76049;PMS7003;64967;50.234;19.224;2023-05-16T04:56:46;9.50;9.00;6.75
76049;PMS7003;64967;50.234;19.224;2023-05-16T04:59:13;6.75;6.75;5.00
76049;PMS7003;64967;50.234;19.224;2023-05-16T05:01:40;12.75;10.25;9.00
76049;PMS7003;64967;50.234;19.224;2023-05-16T05:04:07;12.75;12.75;11.00
76049;PMS7003;64967;50.234;19.224;2023-05-16T05:06:34;13.00;13.00;11.00
76049;PMS7003;64967;50.234;19.224;2023-05-16T05:09:01;10.00;10.00;8.25
76049;PMS7003;64967;50.234;19.224;2023-05-16T05:11:28;12.00;9.33;8.00
76049;PMS7003;64967;50.234;19.224;2023-05-16T05:13:55;9.50;9.50;7.50
76049;PMS7003;64967;50.234;19.224;2023-05-16T05:16:22;7.00;6.00;5.33
76049;PMS7003;64967;50.234;19.224;2023-05-16T05:18:49;6.00;6.00;5.00
76049;PMS7003;64967;50.234;19.224;2023-05-16T05:21:16;6.67;6.67;6.00
76049;PMS7003;64967;50.234;19.224;2023-05-16T05:23:45;7.67;7.00;6.33
76049;PMS7003;64967;50.234;19.224;2023-05-16T05:26:14;6.00;5.00;3.67
76049;PMS7003;64967;50.234;19.224;2023-05-16T05:28:41;4.67;4.67;4.00
76049;PMS7003;64967;50.234;19.224;2023-05-16T05:31:19;5.67;3.33;2.67
76049;PMS7003;64967;50.234;19.224;2023-05-16T05:33:46;6.00;5.00;5.00
76049;PMS7003;64967;50.234;19.224;2023-05-16T05:36:14;5.67;5.00;4.67
76049;PMS7003;64967;50.234;19.224;2023-05-16T05:38:41;4.00;3.67;2.67
76049;PMS7003;64967;50.234;19.224;2023-05-16T05:41:08;7.33;6.00;5.00
76049;PMS7003;64967;50.234;19.224;2023-05-16T05:43:37;5.00;4.33;4.00
76049;PMS7003;64967;50.234;19.224;2023-05-16T05:46:04;9.33;6.67;5.67
76049;PMS7003;64967;50.234;19.224;2023-05-16T05:48:32;4.67;4.67;4.67
76049;PMS7003;64967;50.234;19.224;2023-05-16T05:50:59;5.00;5.00;5.00
76049;PMS7003;64967;50.234;19.224;2023-05-16T05:53:26;9.00;8.67;8.00
76049;PMS7003;64967;50.234;19.224;2023-05-16T05:55:53;9.00;8.00;6.00
76049;PMS7003;64967;50.234;19.224;2023-05-16T05:58:20;7.67;7.67;6.67
76049;PMS7003;64967;50.234;19.224;2023-05-16T06:00:47;7.00;6.00;5.00
76049;PMS7003;64967;50.234;19.224;2023-05-16T06:03:14;7.00;7.00;5.00
76049;PMS7003;64967;50.234;19.224;2023-05-16T06:05:42;6.67;6.67;6.67
76049;PMS7003;64967;50.234;19.224;2023-05-16T06:08:09;7.67;7.67;7.00
76049;PMS7003;64967;50.234;19.224;2023-05-16T06:10:36;8.00;6.67;5.33
76049;PMS7003;64967;50.234;19.224;2023-05-16T06:13:03;1.33;0.00;0.00
76049;PMS7003;64967;50.234;19.224;2023-05-16T06:15:30;7.00;7.00;6.00
76049;PMS7003;64967;50.234;19.224;2023-05-16T06:17:57;10.00;9.00;8.00
76049;PMS7003;64967;50.234;19.224;2023-05-16T06:20:24;8.00;7.67;7.00
76049;PMS7003;64967;50.234;19.224;2023-05-16T06:22:51;10.00;10.00;8.67
76049;PMS7003;64967;50.234;19.224;2023-05-16T06:25:18;11.33;11.33;8.33
76049;PMS7003;64967;50.234;19.224;2023-05-16T06:27:46;10.00;9.33;8.00
76049;PMS7003;64967;50.234;19.224;2023-05-16T06:30:13;12.33;12.33;10.33
76049;PMS7003;64967;50.234;19.224;2023-05-16T06:32:40;15.33;13.00;11.00
76049;PMS7003;64967;50.234;19.224;2023-05-16T06:35:07;13.00;12.00;10.00
76049;PMS7003;64967;50.234;19.224;2023-05-16T06:37:35;14.67;12.67;11.00
76049;PMS7003;64967;50.234;19.224;2023-05-16T06:40:02;11.00;10.00;8.33
76049;PMS7003;64967;50.234;19.224;2023-05-16T06:42:29;11.67;10.67;8.00
76049;PMS7003;64967;50.234;19.224;2023-05-16T06:44:56;7.00;7.00;6.00
76049;PMS7003;64967;50.234;19.224;2023-05-16T06:47:23;17.00;15.00;12.67
76049;PMS7003;64967;50.234;19.224;2023-05-16T06:49:50;11.00;8.67;7.33
76049;PMS7003;64967;50.234;19.224;2023-05-16T06:52:17;7.33;7.33;7.00
76049;PMS7003;64967;50.234;19.224;2023-05-16T06:54:44;8.67;8.67;7.33
76049;PMS7003;64967;50.234;19.224;2023-05-16T06:57:11;6.33;6.33;6.00
76049;PMS7003;64967;50.234;19.224;2023-05-16T06:59:38;6.67;6.67;5.33
76049;PMS7003;64967;50.234;19.224;2023-05-16T07:02:06;4.00;4.00;3.67
76049;PMS7003;64967;50.234;19.224;2023-05-16T07:04:33;11.00;11.00;8.00
76049;PMS7003;64967;50.234;19.224;2023-05-16T07:07:02;15.00;15.00;12.67
76049;PMS7003;64967;50.234;19.224;2023-05-16T07:09:30;11.33;11.00;9.33
76049;PMS7003;64967;50.234;19.224;2023-05-16T07:11:57;12.33;9.33;8.00
76049;PMS7003;64967;50.234;19.224;2023-05-16T07:14:24;8.00;7.67;6.67
76049;PMS7003;64967;50.234;19.224;2023-05-16T07:16:51;4.67;4.67;4.67
76049;PMS7003;64967;50.234;19.224;2023-05-16T07:19:18;7.00;6.67;6.00
76049;PMS7003;64967;50.234;19.224;2023-05-16T07:21:45;8.67;8.33;7.00
76049;PMS7003;64967;50.234;19.224;2023-05-16T07:24:12;6.67;6.00;5.00
76049;PMS7003;64967;50.234;19.224;2023-05-16T07:26:39;5.67;5.67;5.00
76049;PMS7003;64967;50.234;19.224;2023-05-16T07:29:06;9.00;7.33;6.67
76049;PMS7003;64967;50.234;19.224;2023-05-16T07:31:33;8.00;7.00;6.00
76049;PMS7003;64967;50.234;19.224;2023-05-16T07:34:00;7.33;6.00;5.00
76049;PMS7003;64967;50.234;19.224;2023-05-16T07:36:27;5.00;5.00;4.33
76049;PMS7003;64967;50.234;19.224;2023-05-16T07:38:54;6.00;6.00;5.00
76049;PMS7003;64967;50.234;19.224;2023-05-16T07:41:21;6.00;5.67;4.67
76049;PMS7003;64967;50.234;19.224;2023-05-16T07:43:48;8.00;7.00;6.00
76049;PMS7003;64967;50.234;19.224;2023-05-16T07:46:15;7.33;6.33;5.00
76049;PMS7003;64967;50.234;19.224;2023-05-16T07:48:42;10.00;10.00;9.00
76049;PMS7003;64967;50.234;19.224;2023-05-16T07:51:09;10.00;10.00;7.67
76049;PMS7003;64967;50.234;19.224;2023-05-16T07:53:36;11.67;11.00;8.33
76049;PMS7003;64967;50.234;19.224;2023-05-16T07:56:03;6.00;6.00;5.67
76049;PMS7003;64967;50.234;19.224;2023-05-16T07:58:34;10.67;10.33;9.00
76049;PMS7003;64967;50.234;19.224;2023-05-16T08:01:01;11.33;11.33;8.67
76049;PMS7003;64967;50.234;19.224;2023-05-16T08:03:28;17.00;16.67;13.33
76049;PMS7003;64967;50.234;19.224;2023-05-16T08:05:56;9.33;8.67;6.00
76049;PMS7003;64967;50.234;19.224;2023-05-16T08:08:23;7.00;6.67;6.00
76049;PMS7003;64967;50.234;19.224;2023-05-16T08:10:50;5.00;5.00;4.00
76049;PMS7003;64967;50.234;19.224;2023-05-16T08:13:17;13.00;12.67;10.33
76049;PMS7003;64967;50.234;19.224;2023-05-16T08:15:44;11.67;9.67;9.00
76049;PMS7003;64967;50.234;19.224;2023-05-16T08:18:12;11.33;10.67;9.00
76049;PMS7003;64967;50.234;19.224;2023-05-16T08:20:41;15.00;14.00;11.33
76049;PMS7003;64967;50.234;19.224;2023-05-16T08:23:08;15.00;14.67;12.00
76049;PMS7003;64967;50.234;19.224;2023-05-16T08:25:36;10.33;10.00;9.00
76049;PMS7003;64967;50.234;19.224;2023-05-16T08:28:03;12.33;12.00;10.33
76049;PMS7003;64967;50.234;19.224;2023-05-16T08:30:30;12.33;12.00;10.00
76049;PMS7003;64967;50.234;19.224;2023-05-16T08:32:57;13.33;13.00;11.00
76049;PMS7003;64967;50.234;19.224;2023-05-16T08:35:24;16.25;16.25;13.00
76049;PMS7003;64967;50.234;19.224;2023-05-16T08:37:52;16.25;14.25;11.50
76049;PMS7003;64967;50.234;19.224;2023-05-16T08:40:19;12.67;12.67;11.67
76049;PMS7003;64967;50.234;19.224;2023-05-16T08:42:47;15.25;15.00;13.00
76049;PMS7003;64967;50.234;19.224;2023-05-16T08:45:17;11.67;10.00;9.00
76049;PMS7003;64967;50.234;19.224;2023-05-16T08:47:44;9.00;8.33;7.33
76049;PMS7003;64967;50.234;19.224;2023-05-16T08:50:15;8.00;8.00;7.00
76049;PMS7003;64967;50.234;19.224;2023-05-16T08:52:42;13.00;12.00;10.33
76049;PMS7003;64967;50.234;19.224;2023-05-16T08:55:10;8.00;8.00;7.33
76049;PMS7003;64967;50.234;19.224;2023-05-16T08:57:40;8.67;8.67;7.00
76049;PMS7003;64967;50.234;19.224;2023-05-16T09:00:07;10.00;9.00;8.00
76049;PMS7003;64967;50.234;19.224;2023-05-16T09:02:39;9.67;9.67;8.00
76049;PMS7003;64967;50.234;19.224;2023-05-16T09:05:07;9.33;7.67;6.33
76049;PMS7003;64967;50.234;19.224;2023-05-16T09:07:37;9.00;8.00;7.00
76049;PMS7003;64967;50.234;19.224;2023-05-16T09:10:05;6.00;6.00;4.00
76049;PMS7003;64967;50.234;19.224;2023-05-16T09:12:33;8.67;8.33;7.00
76049;PMS7003;64967;50.234;19.224;2023-05-16T09:15:01;9.00;9.00;7.33
76049;PMS7003;64967;50.234;19.224;2023-05-16T09:17:34;9.00;9.00;7.33
76049;PMS7003;64967;50.234;19.224;2023-05-16T09:20:07;7.33;7.33;6.33
76049;PMS7003;64967;50.234;19.224;2023-05-16T09:22:37;5.33;4.33;4.33
76049;PMS7003;64967;50.234;19.224;2023-05-16T09:25:05;10.00;10.00;7.67
76049;PMS7003;64967;50.234;19.224;2023-05-16T09:27:45;9.67;9.67;7.67
76049;PMS7003;64967;50.234;19.224;2023-05-16T09:30:22;13.00;12.00;10.67
76049;PMS7003;64967;50.234;19.224;2023-05-16T09:32:54;8.00;7.67;6.67
76049;PMS7003;64967;50.234;19.224;2023-05-16T09:35:22;10.00;9.00;8.00
76049;PMS7003;64967;50.234;19.224;2023-05-16T09:38:15;12.67;12.00;9.00
76049;PMS7003;64967;50.234;19.224;2023-05-16T09:40:43;13.00;10.33;9.33
76049;PMS7003;64967;50.234;19.224;2023-05-16T09:43:13;8.00;8.00;6.67
76049;PMS7003;64967;50.234;19.224;2023-05-16T09:45:46;9.33;8.33;7.33
76049;PMS7003;64967;50.234;19.224;2023-05-16T09:48:14;9.00;9.00;8.67
76049;PMS7003;64967;50.234;19.224;2023-05-16T09:50:47;12.00;12.00;9.00
76049;PMS7003;64967;50.234;19.224;2023-05-16T09:53:26;11.67;10.67;9.67
76049;PMS7003;64967;50.234;19.224;2023-05-16T09:56:04;11.67;10.00;9.00
76049;PMS7003;64967;50.234;19.224;2023-05-16T09:58:36;8.33;8.00;8.00
76049;PMS7003;64967;50.234;19.224;2023-05-16T10:01:05;11.67;11.00;10.00
76049;PMS7003;64967;50.234;19.224;2023-05-16T10:03:34;9.00;8.00;7.00
76049;PMS7003;64967;50.234;19.224;2023-05-16T10:06:03;8.67;8.67;7.00
76049;PMS7003;64967;50.234;19.224;2023-05-16T10:08:35;11.33;10.67;10.00
76049;PMS7003;64967;50.234;19.224;2023-05-16T10:11:03;14.00;14.00;12.00
76049;PMS7003;64967;50.234;19.224;2023-05-16T10:13:32;13.00;13.00;11.00
76049;PMS7003;64967;50.234;19.224;2023-05-16T10:16:09;16.00;16.00;13.00
76049;PMS7003;64967;50.234;19.224;2023-05-16T10:18:38;15.00;14.00;12.00
76049;PMS7003;64967;50.234;19.224;2023-05-16T10:21:09;12.00;11.33;9.00
76049;PMS7003;64967;50.234;19.224;2023-05-16T10:23:40;11.33;10.00;8.33
76049;PMS7003;64967;50.234;19.224;2023-05-16T10:26:09;7.00;7.00;6.00
76049;PMS7003;64967;50.234;19.224;2023-05-16T10:28:39;6.00;6.00;4.67
76049;PMS7003;64967;50.234;19.224;2023-05-16T10:31:07;9.67;8.67;8.00
76049;PMS7003;64967;50.234;19.224;2023-05-16T10:33:36;11.00;10.67;10.00
76049;PMS7003;64967;50.234;19.224;2023-05-16T10:36:03;10.00;9.33;8.00
76049;PMS7003;64967;50.234;19.224;2023-05-16T10:38:31;14.33;12.33;10.00
76049;PMS7003;64967;50.234;19.224;2023-05-16T10:40:59;9.67;9.33;7.33
76049;PMS7003;64967;50.234;19.224;2023-05-16T10:43:28;13.33;12.00;10.67
76049;PMS7003;64967;50.234;19.224;2023-05-16T10:45:57;10.00;10.00;8.00
76049;PMS7003;64967;50.234;19.224;2023-05-16T10:48:29;10.00;9.00;7.00
76049;PMS7003;64967;50.234;19.224;2023-05-16T10:53:46;8.67;8.67;7.00
76049;PMS7003;64967;50.234;19.224;2023-05-16T10:56:13;8.00;8.00;6.33
76049;PMS7003;64967;50.234;19.224;2023-05-16T10:58:41;12.00;12.00;9.00
76049;PMS7003;64967;50.234;19.224;2023-05-16T11:06:23;12.33;10.00;8.00
76049;PMS7003;64967;50.234;19.224;2023-05-16T11:11:39;8.00;7.33;6.33
76049;PMS7003;64967;50.234;19.224;2023-05-16T11:16:51;5.33;5.00;4.00
76049;PMS7003;64967;50.234;19.224;2023-05-16T11:19:49;6.67;6.00;6.00
76049;PMS7003;64967;50.234;19.224;2023-05-16T11:25:02;11.00;9.00;8.00
76049;PMS7003;64967;50.234;19.224;2023-05-16T11:27:32;12.00;11.00;10.00
76049;PMS7003;64967;50.234;19.224;2023-05-16T11:30:09;11.67;11.67;10.00
76049;PMS7003;64967;50.234;19.224;2023-05-16T11:32:39;13.33;13.33;10.67
76049;PMS7003;64967;50.234;19.224;2023-05-16T11:35:10;12.00;12.00;10.33
76049;PMS7003;64967;50.234;19.224;2023-05-16T11:37:40;19.67;19.00;14.00
76049;PMS7003;64967;50.234;19.224;2023-05-16T11:40:09;16.00;16.00;14.00
76049;PMS7003;64967;50.234;19.224;2023-05-16T11:42:40;18.33;16.33;14.33
76049;PMS7003;64967;50.234;19.224;2023-05-16T11:45:10;18.33;16.33;13.33
76049;PMS7003;64967;50.234;19.224;2023-05-16T11:47:42;14.67;14.00;11.00
76049;PMS7003;64967;50.234;19.224;2023-05-16T11:50:11;13.00;12.33;11.00
76049;PMS7003;64967;50.234;19.224;2023-05-16T11:52:41;11.67;10.00;9.00
76049;PMS7003;64967;50.234;19.224;2023-05-16T11:55:10;13.33;13.33;10.67
76049;PMS7003;64967;50.234;19.224;2023-05-16T11:57:42;13.00;12.33;10.00
76049;PMS7003;64967;50.234;19.224;2023-05-16T12:00:13;10.00;9.00;8.00
76049;PMS7003;64967;50.234;19.224;2023-05-16T12:02:45;13.00;12.00;11.00
76049;PMS7003;64967;50.234;19.224;2023-05-16T12:05:16;11.00;10.00;9.00
76049;PMS7003;64967;50.234;19.224;2023-05-16T12:07:44;7.33;7.33;7.00
76049;PMS7003;64967;50.234;19.224;2023-05-16T12:10:14;10.00;10.00;8.00
76049;PMS7003;64967;50.234;19.224;2023-05-16T12:12:46;9.00;9.00;7.00
76049;PMS7003;64967;50.234;19.224;2023-05-16T12:15:15;10.00;9.67;9.00
76049;PMS7003;64967;50.234;19.224;2023-05-16T12:17:42;6.33;6.00;5.67
76049;PMS7003;64967;50.234;19.224;2023-05-16T12:20:11;9.00;8.67;7.33
76049;PMS7003;64967;50.234;19.224;2023-05-16T12:22:40;8.67;8.00;7.00
76049;PMS7003;64967;50.234;19.224;2023-05-16T12:25:20;8.00;7.00;7.00
76049;PMS7003;64967;50.234;19.224;2023-05-16T12:27:48;6.00;6.00;5.67
76049;PMS7003;64967;50.234;19.224;2023-05-16T12:30:17;7.00;6.67;6.00
76049;PMS7003;64967;50.234;19.224;2023-05-16T12:32:51;6.33;6.33;6.00
76049;PMS7003;64967;50.234;19.224;2023-05-16T12:35:25;7.00;6.00;5.00
76049;PMS7003;64967;50.234;19.224;2023-05-16T12:37:55;10.00;10.00;7.67
76049;PMS7003;64967;50.234;19.224;2023-05-16T12:40:22;7.00;7.00;5.67
76049;PMS7003;64967;50.234;19.224;2023-05-16T12:42:53;12.33;10.67;10.00
76049;PMS7003;64967;50.234;19.224;2023-05-16T12:45:20;8.00;7.67;7.33
76049;PMS7003;64967;50.234;19.224;2023-05-16T12:47:48;7.33;7.33;6.00
76049;PMS7003;64967;50.234;19.224;2023-05-16T12:50:16;7.33;7.00;6.33
76049;PMS7003;64967;50.234;19.224;2023-05-16T12:52:50;7.00;6.00;5.33
76049;PMS7003;64967;50.234;19.224;2023-05-16T12:55:20;9.33;9.00;8.00
76049;PMS7003;64967;50.234;19.224;2023-05-16T12:57:48;5.67;5.33;4.33
76049;PMS7003;64967;50.234;19.224;2023-05-16T13:00:17;6.67;6.00;5.67
76049;PMS7003;64967;50.234;19.224;2023-05-16T13:02:46;8.00;7.00;6.00
76049;PMS7003;64967;50.234;19.224;2023-05-16T13:05:14;7.00;6.00;5.33
76049;PMS7003;64967;50.234;19.224;2023-05-16T13:07:41;7.00;7.00;6.00
76049;PMS7003;64967;50.234;19.224;2023-05-16T13:10:09;7.00;7.00;6.33
76049;PMS7003;64967;50.234;19.224;2023-05-16T13:12:38;10.00;9.00;9.00
76049;PMS7003;64967;50.234;19.224;2023-05-16T13:15:06;13.67;13.00;11.00
76049;PMS7003;64967;50.234;19.224;2023-05-16T13:17:35;13.67;13.00;11.00
76049;PMS7003;64967;50.234;19.224;2023-05-16T13:20:03;12.00;10.00;8.33
76049;PMS7003;64967;50.234;19.224;2023-05-16T13:22:35;10.00;9.00;7.00
76049;PMS7003;64967;50.234;19.224;2023-05-16T13:25:03;9.33;9.33;7.00
76049;PMS7003;64967;50.234;19.224;2023-05-16T13:27:31;9.00;8.33;6.67
76049;PMS7003;64967;50.234;19.224;2023-05-16T13:29:59;8.00;7.33;6.33
76049;PMS7003;64967;50.234;19.224;2023-05-16T13:32:26;6.00;6.00;5.67
76049;PMS7003;64967;50.234;19.224;2023-05-16T13:34:53;9.00;9.00;7.00
76049;PMS7003;64967;50.234;19.224;2023-05-16T13:37:20;8.67;8.00;7.00
76049;PMS7003;64967;50.234;19.224;2023-05-16T13:39:49;7.00;7.00;6.00
76049;PMS7003;64967;50.234;19.224;2023-05-16T13:42:17;8.00;7.33;6.67
76049;PMS7003;64967;50.234;19.224;2023-05-16T13:44:44;11.67;11.33;9.67
76049;PMS7003;64967;50.234;19.224;2023-05-16T13:47:11;7.67;7.67;7.00
76049;PMS7003;64967;50.234;19.224;2023-05-16T13:49:38;12.33;10.00;8.00
76049;PMS7003;64967;50.234;19.224;2023-05-16T13:52:05;9.00;8.67;7.00
76049;PMS7003;64967;50.234;19.224;2023-05-16T13:54:32;9.33;9.00;8.00
76049;PMS7003;64967;50.234;19.224;2023-05-16T13:56:59;7.67;7.67;6.67
76049;PMS7003;64967;50.234;19.224;2023-05-16T13:59:27;8.33;8.33;5.67
76049;PMS7003;64967;50.234;19.224;2023-05-16T14:02:14;9.67;9.00;8.00
76049;PMS7003;64967;50.234;19.224;2023-05-16T14:04:41;7.67;7.33;6.33
76049;PMS7003;64967;50.234;19.224;2023-05-16T14:07:08;7.00;7.00;6.33
76049;PMS7003;64967;50.234;19.224;2023-05-16T14:09:35;7.00;7.00;5.67
76049;PMS7003;64967;50.234;19.224;2023-05-16T14:12:05;9.00;8.33;7.33
76049;PMS7003;64967;50.234;19.224;2023-05-16T14:14:33;6.00;5.33;4.67
76049;PMS7003;64967;50.234;19.224;2023-05-16T14:17:01;8.33;8.33;6.67
76049;PMS7003;64967;50.234;19.224;2023-05-16T14:19:29;7.00;6.67;6.00
76049;PMS7003;64967;50.234;19.224;2023-05-16T14:21:56;7.00;7.00;5.67
76049;PMS7003;64967;50.234;19.224;2023-05-16T14:24:24;6.00;6.00;5.33
76049;PMS7003;64967;50.234;19.224;2023-05-16T14:26:51;6.00;5.33;5.00
76049;PMS7003;64967;50.234;19.224;2023-05-16T14:29:23;6.00;5.67;5.00
76049;PMS7003;64967;50.234;19.224;2023-05-16T14:31:51;4.33;4.00;3.00
76049;PMS7003;64967;50.234;19.224;2023-05-16T14:34:18;4.33;4.33;4.00
76049;PMS7003;64967;50.234;19.224;2023-05-16T14:36:46;6.00;6.00;5.00
76049;PMS7003;64967;50.234;19.224;2023-05-16T14:39:13;9.67;8.00;7.00
76049;PMS7003;64967;50.234;19.224;2023-05-16T14:41:41;8.00;8.00;7.67
76049;PMS7003;64967;50.234;19.224;2023-05-16T14:44:08;4.00;4.00;3.67
76049;PMS7003;64967;50.234;19.224;2023-05-16T14:46:35;5.00;5.00;4.67
76049;PMS7003;64967;50.234;19.224;2023-05-16T14:49:02;4.00;4.00;4.00
76049;PMS7003;64967;50.234;19.224;2023-05-16T14:51:29;5.33;5.00;4.00